createdAt,value
2019-05-14T00:02:21.479Z,102840.97
2019-05-14T00:04:51.249Z,102837.27
2019-05-14T00:07:22.163Z,102845.23
2019-05-14T00:09:52.657Z,102839.58
2019-05-14T00:12:22.326Z,102831.90
2019-05-14T00:14:51.604Z,102829.75
2019-05-14T00:17:21.497Z,102831.60
2019-05-14T00:20:05.926Z,102825.98
2019-05-14T00:22:21.851Z,102819.95
2019-05-14T00:24:51.994Z,102813.96
2019-05-14T00:27:21.879Z,102813.18
2019-05-14T00:29:51.861Z,102816.80
2019-05-14T00:32:21.639Z,102817.48
2019-05-14T00:34:51.570Z,102818.11
2019-05-14T00:37:21.767Z,102815.32
2019-05-14T00:39:52.168Z,102819.73
2019-05-14T00:42:21.594Z,102819.89
2019-05-14T00:44:57.490Z,102819.80
2019-05-14T00:47:21.768Z,102826.52
2019-05-14T00:49:51.808Z,102827.61
2019-05-14T00:52:22.244Z,102826.09
2019-05-14T00:54:52.233Z,102824.56
2019-05-14T00:57:21.216Z,102827.24
2019-05-14T00:59:51.904Z,102822.09
2019-05-14T01:02:21.612Z,102824.78
2019-05-14T01:04:51.572Z,102823.09
2019-05-14T01:07:21.216Z,102823.63
2019-05-14T01:09:52.151Z,102823.50
2019-05-14T01:12:21.402Z,102821.34
2019-05-14T01:14:52.929Z,102821.50
2019-05-14T01:17:22.118Z,102815.32
2019-05-14T01:19:51.303Z,102811.86
2019-05-14T01:22:21.256Z,102800.05
2019-05-14T01:24:52.042Z,102795.75
2019-05-14T01:27:21.113Z,102797.74
2019-05-14T01:29:51.393Z,102795.84
2019-05-14T01:32:21.944Z,102791.90
2019-05-14T01:34:51.951Z,102793.92
2019-05-14T01:37:21.893Z,102788.05
2019-05-14T01:39:51.987Z,102786.89
2019-05-14T01:42:21.669Z,102789.70
2019-05-14T01:44:51.940Z,102781.11
2019-05-14T01:47:21.415Z,102778.50
2019-05-14T01:49:51.504Z,102779.28
2019-05-14T01:52:21.764Z,102780.06
2019-05-14T01:54:51.506Z,102772.11
2019-05-14T01:57:21.944Z,102763.41
2019-05-14T01:59:51.637Z,102762.09
2019-05-14T02:02:22.045Z,102758.25
2019-05-14T02:04:51.257Z,102752.47
2019-05-14T02:07:22.116Z,102744.36
2019-05-14T02:09:51.787Z,102736.21
2019-05-14T02:12:22.341Z,102741.98
2019-05-14T02:14:51.264Z,102746.70
2019-05-14T02:17:21.306Z,102745.45
2019-05-14T02:19:51.541Z,102744.13
2019-05-14T02:22:21.684Z,102739.67
2019-05-14T02:24:51.759Z,102733.97
2019-05-14T02:27:21.397Z,102734.50
2019-05-14T02:29:51.907Z,102735.52
2019-05-14T02:32:20.365Z,102727.34
2019-05-14T02:34:49.930Z,102728.88
2019-05-14T02:37:19.473Z,102734.11
2019-05-14T02:39:50.265Z,102735.27
2019-05-14T02:42:19.649Z,102731.19
2019-05-14T02:44:49.001Z,102730.97
2019-05-14T02:47:19.441Z,102728.63
2019-05-14T02:49:50.257Z,102725.64
2019-05-14T02:52:20.391Z,102721.61
2019-05-14T02:54:49.599Z,102727.05
2019-05-14T02:57:19.980Z,102723.11
2019-05-14T02:59:50.145Z,102719.80
2019-05-14T03:02:18.843Z,102719.33
2019-05-14T03:04:49.922Z,102724.11
2019-05-14T03:07:19.435Z,102729.20
2019-05-14T03:09:50.258Z,102722.80
2019-05-14T03:12:19.388Z,102730.88
2019-05-14T03:14:49.907Z,102737.36
2019-05-14T03:17:19.886Z,102739.76
2019-05-14T03:19:49.643Z,102741.13
2019-05-14T03:22:26.867Z,102735.20
2019-05-14T03:24:50.312Z,102738.37
2019-05-14T03:27:19.422Z,102746.14
2019-05-14T03:29:49.862Z,102741.14
2019-05-14T03:32:22.317Z,102742.52
2019-05-14T03:34:53.264Z,102740.83
2019-05-14T03:37:23.449Z,102732.73
2019-05-14T03:39:49.424Z,102727.66
2019-05-14T03:42:19.271Z,102720.27
2019-05-14T03:44:49.020Z,102730.18
2019-05-14T03:47:19.693Z,102730.12
2019-05-14T03:49:49.937Z,102728.72
2019-05-14T03:52:20.030Z,102728.81
2019-05-14T03:54:49.702Z,102730.12
2019-05-14T03:57:20.034Z,102732.13
2019-05-14T03:59:49.932Z,102725.10
2019-05-14T04:02:19.807Z,102727.20
2019-05-14T04:04:50.225Z,102736.21
2019-05-14T04:07:19.680Z,102729.33
2019-05-14T04:09:49.573Z,102720.69
2019-05-14T04:12:19.377Z,102724.61
2019-05-14T04:14:50.373Z,102726.67
2019-05-14T04:17:32.598Z,102727.63
2019-05-14T04:19:50.840Z,102722.20
2019-05-14T04:22:22.138Z,102728.42
2019-05-14T04:24:50.451Z,102734.27
2019-05-14T04:27:20.561Z,102721.52
2019-05-14T04:29:51.266Z,102725.20
2019-05-14T04:32:20.772Z,102736.88
2019-05-14T04:34:50.151Z,102732.38
2019-05-14T04:37:20.127Z,102728.34
2019-05-14T04:39:50.339Z,102735.25
2019-05-14T04:42:20.300Z,102728.11
2019-05-14T04:44:50.439Z,102737.54
2019-05-14T04:47:30.419Z,102736.70
2019-05-14T04:49:50.576Z,102733.88
2019-05-14T04:52:20.421Z,102734.91
2019-05-14T04:54:50.083Z,102727.48
2019-05-14T04:57:21.371Z,102725.13
2019-05-14T04:59:49.486Z,102718.77
2019-05-14T05:02:19.743Z,102724.80
2019-05-14T05:04:50.671Z,102731.53
2019-05-14T05:07:19.231Z,102731.80
2019-05-14T05:09:50.174Z,102732.64
2019-05-14T05:12:19.717Z,102733.11
2019-05-14T05:14:49.245Z,102743.13
2019-05-14T05:17:19.626Z,102740.12
2019-05-14T05:19:51.683Z,102737.53
2019-05-14T05:22:19.584Z,102738.91
2019-05-14T05:24:48.506Z,102740.93
2019-05-14T05:27:18.476Z,102739.38
2019-05-14T05:29:48.540Z,102734.38
2019-05-14T05:32:19.408Z,102737.92
2019-05-14T05:34:48.273Z,102733.91
2019-05-14T05:37:18.957Z,102730.38
2019-05-14T05:39:49.142Z,102727.17
2019-05-14T05:42:18.842Z,102726.81
2019-05-14T05:44:48.524Z,102722.05
2019-05-14T05:47:18.309Z,102728.27
2019-05-14T05:49:48.867Z,102725.91
2019-05-14T05:52:19.139Z,102721.81
2019-05-14T05:54:49.005Z,102727.61
2019-05-14T05:57:18.731Z,102721.65
2019-05-14T05:59:48.515Z,102714.96
2019-05-14T06:02:18.599Z,102714.19
2019-05-14T06:04:48.090Z,102714.92
2019-05-14T06:07:18.351Z,102709.56
2019-05-14T06:09:48.272Z,102707.12
2019-05-14T06:12:18.927Z,102715.30
2019-05-14T06:14:48.759Z,102710.16
2019-05-14T06:17:19.124Z,102707.62
2019-05-14T06:19:48.676Z,102700.84
2019-05-14T06:22:18.806Z,102702.47
2019-05-14T06:24:48.611Z,102708.38
2019-05-14T06:27:18.202Z,102700.41
2019-05-14T06:29:49.009Z,102693.40
2019-05-14T06:32:18.675Z,102696.03
2019-05-14T06:34:48.964Z,102697.63
2019-05-14T06:37:19.226Z,102690.45
2019-05-14T06:39:48.417Z,102687.18
2019-05-14T06:42:19.078Z,102678.44
2019-05-14T06:44:49.188Z,102678.44
2019-05-14T06:47:18.427Z,102680.80
2019-05-14T06:49:48.847Z,102686.97
2019-05-14T06:52:18.728Z,102673.70
2019-05-14T06:54:49.686Z,102665.73
2019-05-14T06:57:18.080Z,102674.99
2019-05-14T06:59:48.457Z,102681.67
2019-05-14T07:02:19.128Z,102676.91
2019-05-14T07:04:48.523Z,102673.02
2019-05-14T07:07:20.351Z,102681.42
2019-05-14T07:09:48.842Z,102683.11
2019-05-14T07:12:19.160Z,102683.94
2019-05-14T07:14:48.313Z,102682.00
2019-05-14T07:17:18.276Z,102683.87
2019-05-14T07:19:49.028Z,102676.11
2019-05-14T07:22:19.513Z,102677.82
2019-05-14T07:24:49.631Z,102679.82
2019-05-14T07:27:19.232Z,102679.19
2019-05-14T07:29:49.156Z,102678.59
2019-05-14T07:32:19.164Z,102686.77
2019-05-14T07:34:48.270Z,102676.26
2019-05-14T07:37:18.100Z,102682.86
2019-05-14T07:39:48.622Z,102678.84
2019-05-14T07:42:18.356Z,102683.66
2019-05-14T07:44:48.590Z,102677.88
2019-05-14T07:47:18.711Z,102677.63
2019-05-14T07:49:48.948Z,102672.12
2019-05-14T07:52:19.631Z,102672.16
2019-05-14T07:54:48.145Z,102670.00
2019-05-14T07:57:18.961Z,102667.09
2019-05-14T07:59:48.398Z,102666.16
2019-05-14T08:02:19.407Z,102660.94
2019-05-14T08:04:48.736Z,102664.55
2019-05-14T08:07:18.009Z,102659.96
2019-05-14T08:09:48.068Z,102664.33
2019-05-14T08:12:19.200Z,102667.97
2019-05-14T08:15:09.543Z,102664.48
2019-05-14T08:17:18.924Z,102663.16
2019-05-14T08:19:49.144Z,102653.84
2019-05-14T08:22:18.659Z,102653.31
2019-05-14T08:24:48.991Z,102655.56
2019-05-14T08:27:19.192Z,102658.07
2019-05-14T08:29:48.719Z,102657.14
2019-05-14T08:32:19.076Z,102649.86
2019-05-14T08:34:48.140Z,102656.21
2019-05-14T08:37:19.122Z,102652.86
2019-05-14T08:39:48.670Z,102652.63
2019-05-14T08:42:18.617Z,102654.95
2019-05-14T08:44:50.855Z,102658.74
2019-05-14T08:47:18.374Z,102658.02
2019-05-14T08:49:50.522Z,102660.94
2019-05-14T08:52:19.019Z,102652.16
2019-05-14T08:54:49.049Z,102646.59
2019-05-14T08:57:18.938Z,102638.77
2019-05-14T08:59:48.613Z,102630.05
2019-05-14T09:02:19.576Z,102630.05
2019-05-14T09:04:53.524Z,102620.91
2019-05-14T09:07:18.551Z,102618.98
2019-05-14T09:09:48.814Z,102602.30
2019-05-14T09:12:18.751Z,102595.72
2019-05-14T09:14:48.299Z,102597.97
2019-05-14T09:17:18.474Z,102606.56
2019-05-14T09:20:01.086Z,102610.34
2019-05-14T09:22:18.546Z,102609.42
2019-05-14T09:24:49.121Z,102614.90
2019-05-14T09:27:19.238Z,102610.73
2019-05-14T09:29:48.435Z,102612.00
2019-05-14T09:32:19.132Z,102608.81
2019-05-14T09:34:48.664Z,102607.69
2019-05-14T09:37:19.295Z,102603.89
2019-05-14T09:39:48.842Z,102606.58
2019-05-14T09:42:19.596Z,102595.53
2019-05-14T09:44:49.047Z,102599.66
2019-05-14T09:47:18.961Z,102589.31
2019-05-14T09:49:49.106Z,102598.61
2019-05-14T09:52:18.699Z,102592.73
2019-05-14T09:54:49.394Z,102598.08
2019-05-14T09:57:18.979Z,102585.47
2019-05-14T09:59:47.952Z,102594.02
2019-05-14T10:02:16.437Z,102596.30
2019-05-14T10:04:44.729Z,102599.17
2019-05-14T10:07:15.807Z,102604.23
2019-05-14T10:09:43.701Z,102604.50
2019-05-14T10:12:12.030Z,102609.70
2019-05-14T10:14:40.354Z,102606.77
2019-05-14T10:17:08.646Z,102605.45
2019-05-14T10:19:39.382Z,102600.18
2019-05-14T10:22:08.300Z,102591.00
2019-05-14T10:24:38.616Z,102588.25
2019-05-14T10:27:09.046Z,102590.21
2019-05-14T10:29:39.136Z,102579.53
2019-05-14T10:32:08.712Z,102584.78
2019-05-14T10:34:36.905Z,102575.41
2019-05-14T10:37:05.198Z,102568.26
2019-05-14T10:39:33.515Z,102556.52
2019-05-14T10:42:01.815Z,102556.38
2019-05-14T10:44:30.423Z,102544.77
2019-05-14T10:46:58.936Z,102547.99
2019-05-14T10:49:29.697Z,102547.23
2019-05-14T10:51:58.552Z,102543.84
2019-05-14T10:54:29.311Z,102530.30
2019-05-14T10:56:59.078Z,102529.02
2019-05-14T10:59:29.392Z,102530.52
2019-05-14T11:01:57.381Z,102533.28
2019-05-14T11:04:28.431Z,102527.27
2019-05-14T11:06:55.728Z,102528.28
2019-05-14T11:09:24.293Z,102522.26
2019-05-14T11:11:52.920Z,102525.50
2019-05-14T11:14:21.225Z,102520.36
2019-05-14T11:16:49.801Z,102516.77
2019-05-14T11:19:18.809Z,102504.45
2019-05-14T11:21:48.414Z,102505.16
2019-05-14T11:24:18.885Z,102503.12
2019-05-14T11:26:48.799Z,102498.75
2019-05-14T11:29:18.575Z,102490.01
2019-05-14T11:31:48.438Z,102506.72
2019-05-14T11:34:19.237Z,102502.64
2019-05-14T11:36:49.774Z,102484.09
2019-05-14T11:39:18.100Z,102483.78
2019-05-14T11:41:49.092Z,102472.69
2019-05-14T11:44:16.563Z,102478.14
2019-05-14T11:46:56.317Z,102490.50
2019-05-14T11:49:15.600Z,102468.56
2019-05-14T11:52:00.696Z,102473.59
2019-05-14T11:54:13.958Z,102468.94
2019-05-14T11:56:42.586Z,102465.83
2019-05-14T11:59:10.891Z,102469.22
2019-05-14T12:01:39.475Z,102460.78
2019-05-14T12:04:09.047Z,102453.83
2019-05-14T12:06:39.079Z,102454.11
2019-05-14T12:09:11.497Z,102439.99
2019-05-14T12:11:38.502Z,102431.61
2019-05-14T12:14:08.921Z,102438.26
2019-05-14T12:16:40.215Z,102437.85
2019-05-14T12:19:11.626Z,102430.98
2019-05-14T12:21:39.789Z,102414.31
2019-05-14T12:24:13.450Z,102429.93
2019-05-14T12:26:38.612Z,102424.48
2019-05-14T12:29:09.586Z,102423.28
2019-05-14T12:31:38.618Z,102430.55
2019-05-14T12:34:07.093Z,102416.80
2019-05-14T12:36:35.438Z,102415.83
2019-05-14T12:39:05.395Z,102423.34
2019-05-14T12:41:33.717Z,102419.43
2019-05-14T12:44:02.024Z,102415.25
2019-05-14T12:46:30.339Z,102418.12
2019-05-14T12:48:59.179Z,102409.77
2019-05-14T12:51:27.490Z,102415.88
2019-05-14T12:53:58.117Z,102412.59
2019-05-14T12:56:25.947Z,102416.92
2019-05-14T12:58:54.239Z,102408.32
2019-05-14T13:01:22.673Z,102402.46
2019-05-14T13:03:51.348Z,102403.81
2019-05-14T13:06:19.647Z,102409.91
2019-05-14T13:08:49.174Z,102404.09
2019-05-14T13:11:17.635Z,102394.52
2019-05-14T13:13:45.923Z,102392.05
2019-05-14T13:16:15.959Z,102414.63
2019-05-14T13:18:44.255Z,102397.94
2019-05-14T13:21:12.605Z,102391.79
2019-05-14T13:23:40.954Z,102372.70
2019-05-14T13:26:10.462Z,102377.12
2019-05-14T13:28:40.218Z,102370.33
2019-05-14T13:31:09.121Z,102377.00
2019-05-14T13:33:39.341Z,102369.27
2019-05-14T13:36:07.828Z,102370.91
2019-05-14T13:38:39.287Z,102357.43
2019-05-14T13:41:08.486Z,102352.67
2019-05-14T13:43:38.743Z,102348.80
2019-05-14T13:47:35.416Z,102361.94
2019-05-14T13:50:05.095Z,102356.65
2019-05-14T13:52:33.408Z,102349.94
2019-05-14T13:55:02.038Z,102342.92
2019-05-14T13:57:30.361Z,102348.13
2019-05-14T13:59:58.974Z,102330.28
2019-05-14T14:02:28.853Z,102319.06
2019-05-14T14:04:59.006Z,102346.84
2019-05-14T14:07:27.371Z,102326.08
2019-05-14T14:09:55.676Z,102317.56
2019-05-14T14:12:25.401Z,102321.17
2019-05-14T14:14:53.964Z,102311.41
2019-05-14T14:17:22.565Z,102310.16
2019-05-14T14:19:51.153Z,102315.94
2019-05-14T14:22:19.773Z,102308.80
2019-05-14T14:24:48.823Z,102302.89
2019-05-14T14:27:19.577Z,102299.58
2019-05-14T14:29:49.320Z,102291.98
2019-05-14T14:32:18.848Z,102304.81
2019-05-14T14:34:47.387Z,102283.95
2019-05-14T14:37:15.700Z,102291.02
2019-05-14T14:39:44.268Z,102284.88
2019-05-14T14:42:12.583Z,102279.39
2019-05-14T14:44:40.889Z,102272.73
2019-05-14T14:47:09.180Z,102271.20
2019-05-14T14:49:43.455Z,102270.92
2019-05-14T14:52:11.866Z,102269.38
2019-05-14T14:54:38.186Z,102268.51
2019-05-14T14:57:08.499Z,102266.77
2019-05-14T14:59:39.026Z,102257.47
2019-05-14T15:02:09.956Z,102256.55
2019-05-14T15:04:39.715Z,102262.03
2019-05-14T15:07:09.708Z,102271.46
2019-05-14T15:09:36.797Z,102252.56
2019-05-14T15:12:05.277Z,102241.47
2019-05-14T15:14:33.576Z,102234.47
2019-05-14T15:17:01.891Z,102230.16
2019-05-14T15:19:30.185Z,102229.88
2019-05-14T15:21:59.226Z,102249.90
2019-05-14T15:24:27.524Z,102236.20
2019-05-14T15:26:55.870Z,102237.69
2019-05-14T15:29:24.485Z,102242.31
2019-05-14T15:31:52.793Z,102232.52
2019-05-14T15:34:21.167Z,102231.89
2019-05-14T15:36:49.529Z,102226.37
2019-05-14T15:39:19.017Z,102222.22
2019-05-14T15:41:49.907Z,102216.75
2019-05-14T15:44:19.628Z,102211.17
2019-05-14T15:46:49.299Z,102219.91
2019-05-14T15:49:19.175Z,102213.86
2019-05-14T15:51:47.782Z,102217.05
2019-05-14T15:54:36.206Z,102216.83
2019-05-14T15:56:46.413Z,102219.34
2019-05-14T15:59:14.794Z,102208.42
2019-05-14T16:01:43.134Z,102210.24
2019-05-14T16:04:11.641Z,102207.92
2019-05-14T16:06:40.394Z,102206.19
2019-05-14T16:09:08.751Z,102204.05
2019-05-14T16:11:39.193Z,102202.38
2019-05-14T16:14:07.938Z,102208.52
2019-05-14T16:16:39.204Z,102197.73
2019-05-14T16:19:08.238Z,102200.09
2019-05-14T16:21:38.556Z,102196.61
2019-05-14T16:24:08.341Z,102194.45
2019-05-14T16:26:36.818Z,102200.14
2019-05-14T16:29:05.120Z,102199.80
2019-05-14T16:31:37.265Z,102190.17
2019-05-14T16:34:03.830Z,102200.01
2019-05-14T16:36:32.129Z,102192.29
2019-05-14T16:39:00.452Z,102186.73
2019-05-14T16:41:29.165Z,102197.45
2019-05-14T16:43:58.723Z,102193.75
2019-05-14T16:46:28.926Z,102187.16
2019-05-14T16:48:58.239Z,102194.05
2019-05-14T16:51:26.697Z,102203.92
2019-05-14T16:53:54.984Z,102191.31
2019-05-14T16:56:23.303Z,102193.17
2019-05-14T16:58:51.611Z,102185.95
2019-05-14T17:01:20.216Z,102188.52
2019-05-14T17:03:49.394Z,102194.04
2019-05-14T17:06:18.733Z,102191.43
2019-05-14T17:08:48.982Z,102187.70
2019-05-14T17:11:18.167Z,102181.93
2019-05-14T17:13:48.807Z,102185.20
2019-05-14T17:16:19.297Z,102184.22
2019-05-14T17:18:48.580Z,102185.70
2019-05-14T17:21:18.240Z,102186.98
2019-05-14T17:23:48.953Z,102179.94
2019-05-14T17:26:17.130Z,102184.41
2019-05-14T17:28:45.439Z,102176.69
2019-05-14T17:31:13.732Z,102180.95
2019-05-14T17:33:42.316Z,102181.95
2019-05-14T17:36:10.596Z,102176.22
2019-05-14T17:38:39.317Z,102176.30
2019-05-14T17:41:09.452Z,102179.73
2019-05-14T17:43:39.437Z,102177.58
2019-05-14T17:46:09.853Z,102170.27
2019-05-14T17:48:39.085Z,102167.41
2019-05-14T17:51:09.358Z,102156.42
2019-05-14T17:53:38.637Z,102161.89
2019-05-14T17:56:08.504Z,102166.15
2019-05-14T17:58:38.434Z,102167.27
2019-05-14T18:01:09.026Z,102161.98
2019-05-14T18:03:39.674Z,102155.45
2019-05-14T18:06:09.240Z,102157.39
2019-05-14T18:08:37.074Z,102157.00
2019-05-14T18:11:08.530Z,102149.95
2019-05-14T18:13:35.863Z,102151.22
2019-05-14T18:16:04.251Z,102151.98
2019-05-14T18:18:32.534Z,102152.05
2019-05-14T18:21:00.847Z,102153.81
2019-05-14T18:23:29.155Z,102152.27
2019-05-14T18:26:07.837Z,102156.53
2019-05-14T18:28:28.955Z,102157.27
2019-05-14T18:30:58.822Z,102157.55
2019-05-14T18:33:30.991Z,102149.41
2019-05-14T18:35:58.974Z,102152.34
2019-05-14T18:38:29.070Z,102152.61
2019-05-14T18:40:58.622Z,102143.45
2019-05-14T18:43:28.923Z,102142.78
2019-05-14T18:45:58.666Z,102140.45
2019-05-14T18:48:29.007Z,102132.94
2019-05-14T18:50:59.340Z,102135.98
2019-05-14T18:53:28.065Z,102136.41
2019-05-14T18:55:56.550Z,102135.52
2019-05-14T18:58:26.165Z,102136.05
2019-05-14T19:00:54.884Z,102134.93
2019-05-14T19:03:23.458Z,102132.33
2019-05-14T19:05:51.894Z,102130.94
2019-05-14T19:08:20.270Z,102123.31
2019-05-14T19:10:49.606Z,102122.41
2019-05-14T19:13:18.703Z,102125.44
2019-05-14T19:15:48.327Z,102123.85
2019-05-14T19:18:19.061Z,102116.44
2019-05-14T19:20:48.619Z,102118.64
2019-05-14T19:23:18.789Z,102119.05
2019-05-14T19:25:48.326Z,102119.23
2019-05-14T19:28:18.757Z,102118.10
2019-05-14T19:30:48.778Z,102119.92
2019-05-14T19:33:20.360Z,102121.28
2019-05-14T19:35:48.483Z,102122.03
2019-05-14T19:38:18.855Z,102118.81
2019-05-14T19:40:48.389Z,102116.77
2019-05-14T19:43:18.925Z,102122.81
2019-05-14T19:45:48.611Z,102116.26
2019-05-14T19:48:18.929Z,102121.48
2019-05-14T19:50:49.030Z,102126.11
2019-05-14T19:53:17.038Z,102127.20
2019-05-14T19:55:45.358Z,102122.92
2019-05-14T19:58:13.666Z,102115.25
2019-05-14T20:00:41.959Z,102112.37
2019-05-14T20:03:10.272Z,102119.72
2019-05-14T20:05:39.410Z,102118.16
2019-05-14T20:08:08.706Z,102119.97
2019-05-14T20:10:38.823Z,102118.42
2019-05-14T20:13:07.355Z,102117.58
2019-05-14T20:15:35.661Z,102123.61
2019-05-14T20:18:04.014Z,102122.34
2019-05-14T20:20:32.640Z,102121.37
2019-05-14T20:23:00.944Z,102112.53
2019-05-14T20:25:29.233Z,102116.39
2019-05-14T20:27:58.800Z,102118.31
2019-05-14T20:30:29.455Z,102123.25
2019-05-14T20:32:59.289Z,102115.20
2019-05-14T20:35:34.355Z,102114.50
2019-05-14T20:37:58.568Z,102114.52
2019-05-14T20:40:28.476Z,102109.48
2019-05-14T20:42:58.820Z,102114.77
2019-05-14T20:45:28.963Z,102109.97
2019-05-14T20:47:58.563Z,102105.42
2019-05-14T20:50:29.060Z,102110.61
2019-05-14T20:52:59.231Z,102113.01
2019-05-14T20:55:28.615Z,102106.41
2019-05-14T20:57:58.818Z,102111.45
2019-05-14T21:00:29.343Z,102104.26
2019-05-14T21:02:59.510Z,102105.13
2019-05-14T21:05:28.600Z,102100.80
2019-05-14T21:07:58.861Z,102101.07
2019-05-14T21:10:29.073Z,102098.19
2019-05-14T21:12:58.124Z,102090.83
2019-05-14T21:15:28.588Z,102091.80
2019-05-14T21:17:59.270Z,102093.38
2019-05-14T21:20:28.224Z,102092.30
2019-05-14T21:22:58.526Z,102088.09
2019-05-14T21:25:29.317Z,102088.34
2019-05-14T21:27:58.753Z,102087.75
2019-05-14T21:30:29.550Z,102086.33
2019-05-14T21:33:00.124Z,102089.45
2019-05-14T21:35:29.127Z,102091.39
2019-05-14T21:37:59.397Z,102089.00
2019-05-14T21:40:29.120Z,102082.40
2019-05-14T21:42:58.246Z,102086.95
2019-05-14T21:45:26.567Z,102088.99
2019-05-14T21:47:54.875Z,102092.11
2019-05-14T21:50:23.215Z,102086.73
2019-05-14T21:52:51.571Z,102077.63
2019-05-14T21:55:20.073Z,102081.45
2019-05-14T21:57:56.351Z,102080.50
2019-05-14T22:00:32.065Z,102080.49
2019-05-14T22:03:00.690Z,102083.16
2019-05-14T22:05:29.368Z,102079.44
2019-05-14T22:07:58.066Z,102081.34
2019-05-14T22:10:28.566Z,102080.74
2019-05-14T22:12:58.336Z,102077.87
2019-05-14T22:15:29.025Z,102080.87
2019-05-14T22:17:58.742Z,102087.55
2019-05-14T22:20:28.995Z,102087.09
2019-05-14T22:22:59.138Z,102091.52
2019-05-14T22:25:28.506Z,102084.78
2019-05-14T22:28:10.849Z,102088.64
2019-05-14T22:30:29.038Z,102090.44
2019-05-14T22:33:00.403Z,102085.65
2019-05-14T22:35:30.787Z,102089.45
2019-05-14T22:37:59.502Z,102085.38
2019-05-14T22:40:29.163Z,102083.48
2019-05-14T22:43:00.349Z,102092.31
2019-05-14T22:45:28.376Z,102091.02
2019-05-14T22:47:58.868Z,102084.41
2019-05-14T22:50:29.173Z,102082.83
2019-05-14T22:52:58.462Z,102088.72
2019-05-14T22:55:29.034Z,102086.28
2019-05-14T22:57:59.253Z,102078.97
2019-05-14T23:00:28.517Z,102083.50
2019-05-14T23:02:57.317Z,102082.31
2019-05-14T23:05:25.647Z,102083.59
2019-05-14T23:07:54.160Z,102080.32
2019-05-14T23:10:22.570Z,102086.20
2019-05-14T23:12:50.907Z,102085.46
2019-05-14T23:15:20.099Z,102083.79
2019-05-14T23:17:48.695Z,102081.25
2019-05-14T23:20:19.414Z,102082.53
2019-05-14T23:22:49.280Z,102081.54
2019-05-14T23:25:18.538Z,102072.58
2019-05-14T23:27:48.191Z,102075.27
2019-05-14T23:30:20.025Z,102073.20
2019-05-14T23:32:49.011Z,102078.91
2019-05-14T23:35:18.822Z,102079.78
2019-05-14T23:37:48.894Z,102070.30
2019-05-14T23:40:17.887Z,102061.54
2019-05-14T23:42:48.758Z,102060.92
2019-05-14T23:45:18.837Z,102063.51
2019-05-14T23:47:48.992Z,102057.37
2019-05-14T23:50:16.496Z,102058.23
2019-05-14T23:52:44.839Z,102057.75
2019-05-14T23:55:13.326Z,102056.80
2019-05-14T23:57:41.641Z,102057.28
